Time;durP1;ratioP1;P1;durP2;ratioP2;P2;SDS_P1;SDS_P2;PMS_P1;PMS_P2;Temp;Humidity;BMP_temperature;BMP_pressure;BME280_temperature;BME280_humidity;BME280_pressure;Samples;Min_cycle;Max_cycle;Signal;HPM_P1;HPM_P2
2022/06/04 00:01:30;;;;;;;9.90;5.23;;;;;;;;;;5028943;28;20458;-71
2022/06/04 00:03:55;;;;;;;8.33;5.53;;;;;;;;;;5032590;28;20691;-71
2022/06/04 00:06:23;;;;;;;9.40;5.40;;;;;;;;;;5036775;28;20029;-71
2022/06/04 00:08:49;;;;;;;17.27;7.00;;;;;;;;;;5036277;28;20037;-71
2022/06/04 00:16:43;;;;;;;11.30;5.67;;;;;;;;;;5024505;28;20642;-71
2022/06/04 00:19:08;;;;;;;10.77;5.97;;;;;;;;;;5039442;28;20545;-71
2022/06/04 00:21:34;;;;;;;10.17;5.77;;;;;;;;;;5041615;28;20036;-71
2022/06/04 00:23:59;;;;;;;9.10;5.83;;;;;;;;;;5045108;28;20508;-71
2022/06/04 00:26:24;;;;;;;11.43;6.20;;;;;;;;;;5025863;28;20044;-71
2022/06/04 00:28:49;;;;;;;8.43;5.60;;;;;;;;;;5029370;28;20108;-71
2022/06/04 00:31:15;;;;;;;7.93;5.50;;;;;;;;;;5043242;28;20313;-71
2022/06/04 00:33:41;;;;;;;13.40;5.60;;;;;;;;;;5040284;28;20112;-71
2022/06/04 00:36:06;;;;;;;10.90;5.77;;;;;;;;;;5028578;28;20043;-71
2022/06/04 00:38:32;;;;;;;8.00;5.27;;;;;;;;;;5047904;28;20443;-71
2022/06/04 00:41:07;;;;;;;9.80;5.57;;;;;;;;;;5038925;28;20029;-71
2022/06/04 00:43:51;;;;;;;11.77;5.97;;;;;;;;;;5045441;28;20075;-71
2022/06/04 00:46:34;;;;;;;14.70;6.30;;;;;;;;;;5032199;28;20033;-71
2022/06/04 00:49:00;;;;;;;9.77;6.40;;;;;;;;;;5040232;28;20059;-71
2022/06/04 00:51:25;;;;;;;11.20;5.93;;;;;;;;;;5031910;28;20033;-71
2022/06/04 00:53:51;;;;;;;9.87;6.20;;;;;;;;;;5044009;28;20488;-71
2022/06/04 00:56:19;;;;;;;10.87;5.90;;;;;;;;;;5024170;28;20060;-71
2022/06/04 00:59:03;;;;;;;10.00;6.10;;;;;;;;;;5031975;28;20026;-71
2022/06/04 01:01:32;;;;;;;12.13;5.93;;;;;;;;;;5012116;28;20092;-71
2022/06/04 01:04:05;;;;;;;10.97;6.17;;;;;;;;;;5021815;28;20033;-71
2022/06/04 01:06:30;;;;;;;8.87;6.07;;;;;;;;;;5022868;28;20041;-71
2022/06/04 01:08:55;;;;;;;10.47;6.60;;;;;;;;;;5027558;28;20378;-71
2022/06/04 01:12:09;;;;;;;12.00;6.33;;;;;;;;;;5032232;28;20121;-71
2022/06/04 01:14:29;;;;;;;11.10;6.83;;;;;;;;;;5018124;28;20518;-71
2022/06/04 01:17:00;;;;;;;11.10;6.27;;;;;;;;;;5027787;28;20036;-71
2022/06/04 01:19:43;;;;;;;9.48;6.50;;;;;;;;;;5030463;28;20040;-71
2022/06/04 01:22:11;;;;;;;9.57;6.67;;;;;;;;;;5012664;28;20032;-71
2022/06/04 01:24:56;;;;;;;10.67;7.00;;;;;;;;;;5012368;28;20018;-71
2022/06/04 01:27:24;;;;;;;11.37;6.90;;;;;;;;;;5011295;28;20040;-71
2022/06/04 01:29:59;;;;;;;12.33;7.03;;;;;;;;;;5018576;28;20496;-71
2022/06/04 01:32:30;;;;;;;13.83;8.00;;;;;;;;;;5014641;28;20111;-72
2022/06/04 01:35:04;;;;;;;12.10;7.20;;;;;;;;;;5004763;28;20029;-71
2022/06/04 01:37:44;;;;;;;12.20;7.27;;;;;;;;;;5005088;28;20068;-71
2022/06/04 01:42:56;;;;;;;12.73;8.17;;;;;;;;;;5011281;28;20160;-71
2022/06/04 01:45:23;;;;;;;14.90;8.43;;;;;;;;;;5011428;28;20037;-71
2022/06/04 01:47:50;;;;;;;15.97;8.23;;;;;;;;;;5014811;28;20470;-71
2022/06/04 01:50:19;;;;;;;16.17;8.20;;;;;;;;;;5013439;28;20056;-71
2022/06/04 01:52:44;;;;;;;13.83;8.13;;;;;;;;;;5013301;28;20602;-71
2022/06/04 01:55:13;;;;;;;16.33;9.10;;;;;;;;;;5021854;28;20434;-71
2022/06/04 01:57:42;;;;;;;19.77;8.80;;;;;;;;;;5012567;28;20017;-71
2022/06/04 02:00:09;;;;;;;16.00;8.37;;;;;;;;;;5011103;28;20021;-71
2022/06/04 02:02:44;;;;;;;15.90;9.17;;;;;;;;;;5016660;28;20021;-71
2022/06/04 02:05:13;;;;;;;14.83;8.73;;;;;;;;;;5005522;28;20026;-71
2022/06/04 02:07:41;;;;;;;15.20;9.37;;;;;;;;;;5014139;28;20033;-71
2022/06/04 02:10:07;;;;;;;16.00;9.43;;;;;;;;;;5014623;28;20599;-71
2022/06/04 02:12:33;;;;;;;16.57;9.60;;;;;;;;;;5013791;28;20033;-71
2022/06/04 02:15:02;;;;;;;15.77;8.80;;;;;;;;;;5015574;28;20700;-71
2022/06/04 02:17:28;;;;;;;16.13;9.30;;;;;;;;;;5031479;28;20355;-71
2022/06/04 02:19:53;;;;;;;18.30;9.40;;;;;;;;;;5023508;28;20017;-71
2022/06/04 02:22:19;;;;;;;15.70;9.27;;;;;;;;;;5029373;28;20060;-71
2022/06/04 02:24:45;;;;;;;18.40;9.37;;;;;;;;;;5031314;28;20018;-71
2022/06/04 02:27:10;;;;;;;15.93;9.77;;;;;;;;;;5031324;28;20385;-71
2022/06/04 02:29:36;;;;;;;15.73;9.10;;;;;;;;;;5031027;28;20028;-71
2022/06/04 02:32:17;;;;;;;21.13;9.73;;;;;;;;;;5013307;28;20072;-71
2022/06/04 02:34:45;;;;;;;13.97;9.00;;;;;;;;;;5011427;28;20046;-71
2022/06/04 02:37:24;;;;;;;16.53;9.53;;;;;;;;;;5012593;28;20021;-69
2022/06/04 02:40:01;;;;;;;15.13;9.70;;;;;;;;;;5014084;28;20018;-69
2022/06/04 02:42:30;;;;;;;18.13;9.70;;;;;;;;;;5011406;28;20040;-69
2022/06/04 02:44:58;;;;;;;23.37;10.27;;;;;;;;;;5019095;28;20014;-69
2022/06/04 02:47:23;;;;;;;16.83;9.73;;;;;;;;;;5014687;28;20112;-69
2022/06/04 02:49:48;;;;;;;18.30;10.13;;;;;;;;;;5009554;28;20037;-69
2022/06/04 02:52:14;;;;;;;17.87;9.80;;;;;;;;;;5017537;28;20144;-69
2022/06/04 02:54:44;;;;;;;18.93;9.93;;;;;;;;;;5009338;28;20033;-69
2022/06/04 02:57:11;;;;;;;17.77;10.03;;;;;;;;;;5006268;28;20615;-69
2022/06/04 02:59:37;;;;;;;22.17;11.23;;;;;;;;;;5008987;28;20164;-69
2022/06/04 03:02:03;;;;;;;22.63;10.10;;;;;;;;;;5022818;28;20497;-69
2022/06/04 03:04:39;;;;;;;20.87;11.10;;;;;;;;;;5026584;28;20032;-69
2022/06/04 03:07:05;;;;;;;17.00;10.93;;;;;;;;;;5017105;28;20033;-69
2022/06/04 03:09:30;;;;;;;20.10;11.07;;;;;;;;;;5014384;28;20416;-69
2022/06/04 03:11:55;;;;;;;18.57;10.87;;;;;;;;;;5020978;28;20025;-69
2022/06/04 03:14:20;;;;;;;18.90;10.93;;;;;;;;;;5028746;28;20389;-69
2022/06/04 03:16:47;;;;;;;20.43;11.50;;;;;;;;;;5022443;28;20033;-69
2022/06/04 03:19:12;;;;;;;19.23;11.30;;;;;;;;;;5025097;28;20021;-69
2022/06/04 03:21:38;;;;;;;19.47;11.40;;;;;;;;;;5021311;28;20022;-69
2022/06/04 03:24:04;;;;;;;20.70;11.10;;;;;;;;;;5018070;28;20112;-69
2022/06/04 03:26:29;;;;;;;25.03;12.20;;;;;;;;;;5027296;28;20335;-69
2022/06/04 03:28:54;;;;;;;18.23;11.17;;;;;;;;;;5031221;28;20620;-69
2022/06/04 03:31:20;;;;;;;18.07;10.90;;;;;;;;;;5023901;28;20034;-69
2022/06/04 03:33:45;;;;;;;17.97;10.93;;;;;;;;;;5027007;28;20060;-69
2022/06/04 03:36:10;;;;;;;22.30;11.93;;;;;;;;;;5023967;28;20033;-69
2022/06/04 03:38:36;;;;;;;26.70;12.37;;;;;;;;;;5022418;28;20026;-69
2022/06/04 03:41:01;;;;;;;20.83;10.93;;;;;;;;;;5017693;28;20057;-69
2022/06/04 03:43:26;;;;;;;20.60;10.87;;;;;;;;;;5023334;28;20418;-69
2022/06/04 03:45:51;;;;;;;21.47;10.93;;;;;;;;;;5021841;28;20432;-69
2022/06/04 03:48:17;;;;;;;17.87;10.50;;;;;;;;;;5024808;28;20363;-69
2022/06/04 03:50:43;;;;;;;24.30;10.97;;;;;;;;;;5019688;28;20025;-69
2022/06/04 03:53:08;;;;;;;20.43;10.90;;;;;;;;;;5030685;28;20030;-69
2022/06/04 03:55:33;;;;;;;22.83;11.33;;;;;;;;;;5027846;28;20014;-69
2022/06/04 03:57:58;;;;;;;22.50;11.37;;;;;;;;;;5031177;28;20428;-69
2022/06/04 04:00:27;;;;;;;19.87;11.00;;;;;;;;;;5032913;28;20017;-69
2022/06/04 04:03:00;;;;;;;20.67;11.33;;;;;;;;;;5015659;28;20080;-69
2022/06/04 04:05:28;;;;;;;18.20;10.43;;;;;;;;;;5025584;28;20029;-69
2022/06/04 04:07:54;;;;;;;21.57;10.73;;;;;;;;;;5029316;28;20033;-69
2022/06/04 04:10:20;;;;;;;18.63;11.03;;;;;;;;;;5019912;28;20044;-69
2022/06/04 04:12:45;;;;;;;17.13;10.03;;;;;;;;;;5033157;28;20398;-69
2022/06/04 04:15:11;;;;;;;21.87;10.50;;;;;;;;;;5031087;28;20033;-69
2022/06/04 04:17:39;;;;;;;18.60;10.83;;;;;;;;;;5015684;28;20021;-68
2022/06/04 04:20:05;;;;;;;18.43;10.07;;;;;;;;;;5031381;28;20580;-68
2022/06/04 04:22:30;;;;;;;17.87;9.83;;;;;;;;;;5022680;28;20100;-68
2022/06/04 04:24:56;;;;;;;21.70;10.10;;;;;;;;;;5032275;28;20479;-69
2022/06/04 04:27:21;;;;;;;16.67;9.03;;;;;;;;;;5029837;28;20079;-68
2022/06/04 04:29:46;;;;;;;15.13;9.37;;;;;;;;;;5013858;28;20026;-68
2022/06/04 04:32:11;;;;;;;14.73;8.47;;;;;;;;;;5015896;28;20103;-68
2022/06/04 04:34:37;;;;;;;15.23;8.50;;;;;;;;;;5012651;28;20537;-68
2022/06/04 04:37:02;;;;;;;18.13;8.20;;;;;;;;;;5014661;28;20014;-68
2022/06/04 04:39:28;;;;;;;13.63;7.33;;;;;;;;;;5028135;28;20053;-68
2022/06/04 04:41:56;;;;;;;17.40;7.93;;;;;;;;;;5025083;28;20529;-68
2022/06/04 04:44:22;;;;;;;14.60;7.83;;;;;;;;;;5015261;28;20374;-68
2022/06/04 04:46:49;;;;;;;14.47;8.03;;;;;;;;;;5026014;28;20025;-68
2022/06/04 04:49:14;;;;;;;11.27;7.03;;;;;;;;;;5018674;28;20021;-68
2022/06/04 04:51:39;;;;;;;12.00;7.67;;;;;;;;;;5027950;28;20037;-68
2022/06/04 04:54:04;;;;;;;12.83;7.20;;;;;;;;;;5016202;28;20033;-68
2022/06/04 04:56:30;;;;;;;14.73;7.60;;;;;;;;;;5026219;28;20018;-68
2022/06/04 04:58:55;;;;;;;12.47;6.83;;;;;;;;;;5030960;28;20075;-68
2022/06/04 05:01:22;;;;;;;17.15;8.07;;;;;;;;;;5019744;28;20051;-68
2022/06/04 05:03:48;;;;;;;16.58;8.02;;;;;;;;;;5024039;28;20477;-68
2022/06/04 05:06:14;;;;;;;15.27;7.30;;;;;;;;;;5028034;28;20030;-68
2022/06/04 05:08:40;;;;;;;17.25;7.75;;;;;;;;;;5027394;28;20025;-68
2022/06/04 05:11:09;;;;;;;13.15;6.95;;;;;;;;;;5025330;28;20036;-68
2022/06/04 05:13:34;;;;;;;17.23;7.20;;;;;;;;;;5030744;28;20025;-68
2022/06/04 05:15:59;;;;;;;11.40;6.65;;;;;;;;;;5016743;28;20028;-68
2022/06/04 05:18:25;;;;;;;13.40;6.90;;;;;;;;;;5031494;28;20096;-68
2022/06/04 05:20:50;;;;;;;14.38;6.78;;;;;;;;;;5023459;28;20030;-68
2022/06/04 05:23:15;;;;;;;11.20;6.55;;;;;;;;;;5021202;28;20022;-68
2022/06/04 05:25:40;;;;;;;12.38;6.47;;;;;;;;;;5021302;28;20018;-68
2022/06/04 05:28:06;;;;;;;15.13;7.40;;;;;;;;;;5031261;28;20025;-69
2022/06/04 05:30:31;;;;;;;12.23;6.93;;;;;;;;;;5029160;28;20462;-69
2022/06/04 05:32:56;;;;;;;14.05;6.72;;;;;;;;;;5014216;28;20414;-68
2022/06/04 05:35:21;;;;;;;11.93;6.45;;;;;;;;;;5014374;28;20017;-69
2022/06/04 05:37:47;;;;;;;12.52;7.00;;;;;;;;;;5027560;28;20034;-68
2022/06/04 05:40:12;;;;;;;11.77;6.97;;;;;;;;;;5015581;28;20088;-69
2022/06/04 05:42:37;;;;;;;11.07;7.00;;;;;;;;;;5029637;28;20089;-69
2022/06/04 05:45:03;;;;;;;12.52;7.25;;;;;;;;;;5016223;28;20390;-68
2022/06/04 05:47:28;;;;;;;14.30;6.80;;;;;;;;;;5025231;28;20551;-68
2022/06/04 05:49:53;;;;;;;11.23;6.30;;;;;;;;;;5023529;28;20049;-68
2022/06/04 05:52:20;;;;;;;11.85;6.80;;;;;;;;;;5014453;28;20486;-68
2022/06/04 05:54:45;;;;;;;12.35;6.50;;;;;;;;;;5024647;28;20029;-68
2022/06/04 05:57:11;;;;;;;13.20;6.53;;;;;;;;;;5027753;28;20032;-69
2022/06/04 05:59:36;;;;;;;12.73;6.10;;;;;;;;;;5024418;28;20021;-69
2022/06/04 06:02:01;;;;;;;14.55;6.18;;;;;;;;;;5030269;28;20029;-69
2022/06/04 06:04:27;;;;;;;10.80;5.40;;;;;;;;;;5030766;28;20037;-69
2022/06/04 06:06:53;;;;;;;10.10;5.82;;;;;;;;;;5016607;28;20112;-69
2022/06/04 06:09:19;;;;;;;10.88;5.78;;;;;;;;;;5020669;28;20026;-69
2022/06/04 06:11:45;;;;;;;10.82;6.35;;;;;;;;;;5014071;28;20382;-69
2022/06/04 06:14:11;;;;;;;11.43;5.68;;;;;;;;;;5026652;28;20045;-69
2022/06/04 06:16:39;;;;;;;11.60;6.20;;;;;;;;;;5028362;28;20040;-69
2022/06/04 06:19:04;;;;;;;10.15;5.40;;;;;;;;;;5031216;28;20037;-69
2022/06/04 06:21:31;;;;;;;9.45;5.03;;;;;;;;;;5018250;28;20228;-69
2022/06/04 06:23:57;;;;;;;11.65;6.05;;;;;;;;;;5011566;28;20379;-69
2022/06/04 06:26:25;;;;;;;8.38;5.30;;;;;;;;;;5011720;28;20021;-69
2022/06/04 06:28:50;;;;;;;9.85;5.65;;;;;;;;;;5012364;28;20153;-69
2022/06/04 06:31:17;;;;;;;9.23;5.03;;;;;;;;;;5011309;28;20113;-69
2022/06/04 06:33:42;;;;;;;9.93;5.47;;;;;;;;;;5011958;28;20141;-69
2022/06/04 06:36:08;;;;;;;11.48;5.13;;;;;;;;;;5017789;28;20076;-69
2022/06/04 06:38:34;;;;;;;7.88;5.15;;;;;;;;;;5030443;28;20033;-69
2022/06/04 06:41:00;;;;;;;9.50;5.38;;;;;;;;;;5031030;28;20470;-69
2022/06/04 06:43:34;;;;;;;13.38;5.18;;;;;;;;;;5031433;28;20079;-69
2022/06/04 06:46:08;;;;;;;12.15;5.53;;;;;;;;;;5024177;28;20537;-69
2022/06/04 06:48:33;;;;;;;12.95;5.05;;;;;;;;;;5011285;28;20057;-69
2022/06/04 06:51:04;;;;;;;9.70;4.85;;;;;;;;;;5012858;28;20280;-69
2022/06/04 06:53:29;;;;;;;11.52;5.30;;;;;;;;;;5011466;28;20034;-69
2022/06/04 06:55:55;;;;;;;9.68;5.20;;;;;;;;;;5027964;28;20040;-69
2022/06/04 06:58:20;;;;;;;12.40;5.47;;;;;;;;;;5027045;28;20029;-69
2022/06/04 07:00:45;;;;;;;12.02;5.03;;;;;;;;;;5022774;28;20017;-69
2022/06/04 07:03:10;;;;;;;11.20;5.20;;;;;;;;;;5023952;28;20024;-69
2022/06/04 07:05:36;;;;;;;8.50;5.05;;;;;;;;;;5025470;28;20484;-70
2022/06/04 07:08:02;;;;;;;10.20;5.20;;;;;;;;;;5016179;28;20050;-69
2022/06/04 07:10:27;;;;;;;9.45;5.18;;;;;;;;;;5015146;28;20026;-69
2022/06/04 07:12:52;;;;;;;10.45;5.45;;;;;;;;;;5028532;28;20018;-69
2022/06/04 07:15:17;;;;;;;8.75;5.05;;;;;;;;;;5030582;28;20026;-69
2022/06/04 07:17:43;;;;;;;8.73;4.93;;;;;;;;;;5030912;28;20469;-70
2022/06/04 07:20:08;;;;;;;11.40;4.78;;;;;;;;;;5032640;28;20022;-69
2022/06/04 07:22:33;;;;;;;10.98;5.10;;;;;;;;;;5024575;28;20409;-69
2022/06/04 07:24:59;;;;;;;9.07;4.80;;;;;;;;;;5025744;28;20109;-69
2022/06/04 07:27:24;;;;;;;10.23;5.10;;;;;;;;;;5024461;28;20022;-69
2022/06/04 07:29:50;;;;;;;9.90;5.10;;;;;;;;;;5031820;28;20021;-69
2022/06/04 07:32:15;;;;;;;11.27;4.97;;;;;;;;;;5019995;28;20026;-69
2022/06/04 07:34:40;;;;;;;9.27;4.63;;;;;;;;;;5041982;28;20103;-69
2022/06/04 07:37:07;;;;;;;8.35;4.28;;;;;;;;;;5028142;28;20389;-69
2022/06/04 07:39:32;;;;;;;9.27;4.35;;;;;;;;;;5035204;28;20124;-69
2022/06/04 07:41:58;;;;;;;10.05;4.78;;;;;;;;;;5042857;28;20656;-69
2022/06/04 07:44:26;;;;;;;6.88;4.35;;;;;;;;;;5032639;28;20104;-69
2022/06/04 07:46:52;;;;;;;10.55;4.72;;;;;;;;;;5040002;28;20416;-70
2022/06/04 07:49:19;;;;;;;8.18;4.60;;;;;;;;;;5024945;28;20052;-69
2022/06/04 07:51:45;;;;;;;9.38;4.50;;;;;;;;;;5035325;28;20029;-69
2022/06/04 07:54:11;;;;;;;8.45;4.28;;;;;;;;;;5040456;28;20051;-69
2022/06/04 07:56:37;;;;;;;8.82;4.25;;;;;;;;;;5032122;28;20470;-69
2022/06/04 07:59:03;;;;;;;9.27;4.43;;;;;;;;;;5038907;28;20505;-69
2022/06/04 08:01:28;;;;;;;9.18;4.88;;;;;;;;;;5035949;28;20021;-69
2022/06/04 08:03:54;;;;;;;9.55;4.38;;;;;;;;;;5030822;28;20686;-69
2022/06/04 08:06:21;;;;;;;9.23;4.70;;;;;;;;;;5024399;28;20037;-69
2022/06/04 08:08:48;;;;;;;9.30;4.57;;;;;;;;;;5035794;28;20106;-69
2022/06/04 08:11:31;;;;;;;9.25;4.65;;;;;;;;;;5032580;28;20497;-69
2022/06/04 08:13:57;;;;;;;11.38;5.05;;;;;;;;;;5026237;28;20034;-69
2022/06/04 08:16:22;;;;;;;8.18;4.65;;;;;;;;;;5042638;28;20021;-69
2022/06/04 08:18:47;;;;;;;10.65;4.72;;;;;;;;;;5029339;28;20033;-69
2022/06/04 08:21:13;;;;;;;10.05;4.63;;;;;;;;;;5028970;28;20024;-69
2022/06/04 08:23:39;;;;;;;7.35;4.07;;;;;;;;;;5012485;28;20025;-69
2022/06/04 08:26:06;;;;;;;10.52;3.75;;;;;;;;;;5038219;28;20431;-69
2022/06/04 08:28:32;;;;;;;8.52;3.70;;;;;;;;;;5016631;28;20036;-69
2022/06/04 08:31:08;;;;;;;6.95;3.90;;;;;;;;;;5021955;28;20029;-69
2022/06/04 08:33:34;;;;;;;8.63;3.75;;;;;;;;;;5022266;28;20044;-70
2022/06/04 08:35:59;;;;;;;8.88;4.68;;;;;;;;;;5023634;28;20386;-69
2022/06/04 08:38:24;;;;;;;7.93;4.30;;;;;;;;;;5027913;28;20406;-69
2022/06/04 08:40:51;;;;;;;7.90;4.22;;;;;;;;;;5035057;28;20507;-70
2022/06/04 08:43:34;;;;;;;8.05;4.50;;;;;;;;;;5039267;28;20021;-70
2022/06/04 08:46:02;;;;;;;8.80;4.20;;;;;;;;;;5024348;28;20433;-71
2022/06/04 08:48:32;;;;;;;8.13;3.88;;;;;;;;;;5044082;28;20104;-70
2022/06/04 08:50:58;;;;;;;9.30;4.32;;;;;;;;;;5043155;28;20116;-69
2022/06/04 08:53:27;;;;;;;8.35;3.60;;;;;;;;;;5034083;28;20548;-69
2022/06/04 08:58:42;;;;;;;8.10;3.70;;;;;;;;;;5028108;28;20064;-70
2022/06/04 09:01:13;;;;;;;7.38;3.45;;;;;;;;;;5035207;28;20040;-70
2022/06/04 09:03:38;;;;;;;;;;;;;;;;;;5031856;28;20028;-70
2022/06/04 09:06:08;;;;;;;8.13;3.53;;;;;;;;;;5042920;28;19913;-70
2022/06/04 09:08:52;;;;;;;6.82;2.92;;;;;;;;;;5020164;28;20338;-70
2022/06/04 09:11:20;;;;;;;6.63;3.03;;;;;;;;;;5032390;28;20116;-70
2022/06/04 09:14:04;;;;;;;9.40;3.08;;;;;;;;;;5024237;28;20136;-69
2022/06/04 09:16:38;;;;;;;8.20;3.50;;;;;;;;;;5030414;28;20072;-69
2022/06/04 09:19:09;;;;;;;7.55;4.20;;;;;;;;;;5028082;28;20021;-69
2022/06/04 09:21:34;;;;;;;;;;;;;;;;;;5019948;28;20123;-69
2022/06/04 09:24:00;;;;;;;12.27;4.60;;;;;;;;;;5024492;28;19952;-69
2022/06/04 09:26:25;;;;;;;8.90;4.75;;;;;;;;;;5044010;28;20365;-69
2022/06/04 09:29:12;;;;;;;9.88;4.35;;;;;;;;;;5030392;28;20024;-69
2022/06/04 09:31:54;;;;;;;7.53;3.72;;;;;;;;;;5033053;28;20033;-69
2022/06/04 09:34:39;;;;;;;6.70;3.70;;;;;;;;;;5021509;28;20095;-69
2022/06/04 09:37:06;;;;;;;5.32;3.40;;;;;;;;;;5023727;28;20179;-69
2022/06/04 09:39:32;;;;;;;8.10;3.13;;;;;;;;;;5034741;28;20131;-69
2022/06/04 09:42:07;;;;;;;7.63;3.70;;;;;;;;;;5026137;28;20026;-69
2022/06/04 09:44:35;;;;;;;7.28;3.20;;;;;;;;;;5014721;28;20029;-69
2022/06/04 09:47:08;;;;;;;6.90;3.10;;;;;;;;;;5032225;28;20033;-69
2022/06/04 09:49:49;;;;;;;8.32;2.92;;;;;;;;;;5038052;28;20028;-70
2022/06/04 09:52:33;;;;;;;7.38;3.28;;;;;;;;;;5020085;28;20509;-69
2022/06/04 09:54:59;;;;;;;6.60;3.60;;;;;;;;;;5007881;28;20029;-70
2022/06/04 09:57:35;;;;;;;6.22;3.65;;;;;;;;;;5029014;28;20499;-69
2022/06/04 10:00:02;;;;;;;7.85;3.90;;;;;;;;;;5029673;28;20466;-69
2022/06/04 10:02:28;;;;;;;6.82;3.38;;;;;;;;;;5032215;28;20021;-69
2022/06/04 10:05:02;;;;;;;6.15;2.95;;;;;;;;;;5027543;28;20042;-69
2022/06/04 10:07:33;;;;;;;7.68;3.05;;;;;;;;;;5031384;28;20063;-69
2022/06/04 10:09:59;;;;;;;7.03;3.42;;;;;;;;;;5044811;28;20064;-69
2022/06/04 10:15:17;;;;;;;6.15;3.08;;;;;;;;;;5025016;28;20045;-70
2022/06/04 10:17:42;;;;;;;4.35;2.55;;;;;;;;;;5026064;28;20060;-70
2022/06/04 10:20:22;;;;;;;6.65;3.33;;;;;;;;;;5040004;28;20017;-69
2022/06/04 10:22:49;;;;;;;6.63;3.13;;;;;;;;;;5020821;28;20073;-69
2022/06/04 10:25:22;;;;;;;7.18;3.22;;;;;;;;;;5035675;28;20061;-69
2022/06/04 10:28:00;;;;;;;7.22;3.60;;;;;;;;;;5023771;28;20529;-69
2022/06/04 10:30:52;;;;;;;8.18;4.00;;;;;;;;;;5035148;28;20029;-69
2022/06/04 10:33:23;;;;;;;9.02;3.10;;;;;;;;;;5032602;28;20430;-69
2022/06/04 10:35:56;;;;;;;5.97;2.80;;;;;;;;;;5035680;28;20078;-69
2022/06/04 10:38:45;;;;;;;5.88;3.15;;;;;;;;;;5029337;28;20037;-70
2022/06/04 10:41:10;;;;;;;8.70;3.10;;;;;;;;;;5039693;28;20060;-70
2022/06/04 10:43:54;;;;;;;7.38;3.42;;;;;;;;;;5023461;28;20052;-70
2022/06/04 10:46:22;;;;;;;7.13;3.40;;;;;;;;;;5039642;28;20482;-69
2022/06/04 10:48:53;;;;;;;5.43;2.67;;;;;;;;;;5033356;28;20025;-70
2022/06/04 10:51:27;;;;;;;12.40;3.55;;;;;;;;;;5034396;28;20099;-70
2022/06/04 10:54:16;;;;;;;6.25;3.30;;;;;;;;;;5043562;28;20055;-70
2022/06/04 10:56:45;;;;;;;6.32;3.70;;;;;;;;;;5030539;28;20032;-70
2022/06/04 10:59:20;;;;;;;7.05;3.67;;;;;;;;;;5028144;28;20025;-70
2022/06/04 11:01:57;;;;;;;10.15;3.80;;;;;;;;;;5042645;28;20029;-70
2022/06/04 11:04:31;;;;;;;7.13;3.30;;;;;;;;;;5029345;28;20030;-70
2022/06/04 11:07:00;;;;;;;6.63;3.90;;;;;;;;;;5032606;28;20556;-70
2022/06/04 11:09:34;;;;;;;7.53;3.53;;;;;;;;;;5037928;28;20401;-70
2022/06/04 11:12:03;;;;;;;6.30;3.47;;;;;;;;;;5020067;28;20026;-70
2022/06/04 11:14:43;;;;;;;13.63;3.70;;;;;;;;;;5030724;28;20122;-70
2022/06/04 11:17:16;;;;;;;8.10;4.05;;;;;;;;;;5027485;28;20032;-70
2022/06/04 11:19:52;;;;;;;8.00;3.50;;;;;;;;;;5039271;28;20037;-70
2022/06/04 11:22:21;;;;;;;7.40;4.00;;;;;;;;;;5030603;28;20025;-70
2022/06/04 11:24:49;;;;;;;11.63;3.75;;;;;;;;;;5018466;28;20013;-70
2022/06/04 11:27:18;;;;;;;8.85;3.13;;;;;;;;;;5022843;28;20040;-71
2022/06/04 11:29:43;;;;;;;8.52;4.18;;;;;;;;;;5030850;28;20130;-71
2022/06/04 11:32:28;;;;;;;8.63;4.50;;;;;;;;;;5045757;28;20036;-70
2022/06/04 11:35:12;;;;;;;6.95;3.50;;;;;;;;;;5015547;28;20048;-70
2022/06/04 11:37:52;;;;;;;6.82;3.35;;;;;;;;;;5021333;28;20037;-70
2022/06/04 11:40:47;;;;;;;7.57;3.88;;;;;;;;;;5045403;28;20492;-70
2022/06/04 11:43:31;;;;;;;6.13;3.42;;;;;;;;;;5027320;28;20701;-70
2022/06/04 11:46:05;;;;;;;6.75;3.83;;;;;;;;;;5028527;28;20029;-70
2022/06/04 11:48:42;;;;;;;7.57;3.90;;;;;;;;;;5045557;28;20461;-70
2022/06/04 11:51:22;;;;;;;7.97;4.82;;;;;;;;;;5033745;28;20029;-70
2022/06/04 11:53:53;;;;;;;7.25;4.03;;;;;;;;;;5026267;28;20013;-70
2022/06/04 11:56:32;;;;;;;7.47;3.80;;;;;;;;;;5044049;28;20063;-70
2022/06/04 11:59:09;;;;;;;10.20;4.20;;;;;;;;;;5021306;28;20013;-70
2022/06/04 12:01:34;;;;;;;6.75;4.10;;;;;;;;;;5032367;28;20502;-70
2022/06/04 12:04:14;;;;;;;9.88;3.85;;;;;;;;;;5010917;28;20032;-70
2022/06/04 12:06:42;;;;;;;5.82;3.33;;;;;;;;;;5024242;28;20663;-70
2022/06/04 12:09:07;;;;;;;6.10;3.58;;;;;;;;;;5036761;28;20029;-70
2022/06/04 12:11:51;;;;;;;7.35;3.33;;;;;;;;;;5030543;28;20041;-70
2022/06/04 12:14:37;;;;;;;6.50;3.40;;;;;;;;;;5027104;28;20033;-70
2022/06/04 12:17:12;;;;;;;6.93;3.30;;;;;;;;;;5022346;28;20021;-70
2022/06/04 12:25:13;;;;;;;6.78;3.10;;;;;;;;;;5033951;28;20028;-71
2022/06/04 12:27:54;;;;;;;7.28;3.25;;;;;;;;;;5040716;28;20032;-71
2022/06/04 12:30:47;;;;;;;6.03;2.67;;;;;;;;;;5045813;28;20032;-71
2022/06/04 12:33:29;;;;;;;4.07;2.30;;;;;;;;;;5027081;28;20041;-71
2022/06/04 12:35:56;;;;;;;5.55;2.45;;;;;;;;;;5023226;28;20034;-71
2022/06/04 12:38:22;;;;;;;6.75;3.20;;;;;;;;;;5034932;28;20022;-71
2022/06/04 12:40:48;;;;;;;6.70;2.60;;;;;;;;;;5028729;28;20017;-71
2022/06/04 12:43:13;;;;;;;5.68;2.30;;;;;;;;;;5032435;28;20024;-71
2022/06/04 12:45:38;;;;;;;5.70;2.58;;;;;;;;;;5014450;28;20449;-71
2022/06/04 12:48:20;;;;;;;4.70;2.40;;;;;;;;;;5030272;28;20033;-71
2022/06/04 12:50:47;;;;;;;4.65;2.20;;;;;;;;;;5032740;28;20032;-71
2022/06/04 12:53:16;;;;;;;6.10;2.30;;;;;;;;;;5030881;28;20030;-71
2022/06/04 12:56:10;;;;;;;5.43;1.83;;;;;;;;;;5014723;28;20034;-71
2022/06/04 12:58:39;;;;;;;5.30;2.20;;;;;;;;;;5012733;28;20104;-71
2022/06/04 13:01:20;;;;;;;4.10;2.00;;;;;;;;;;5018547;28;20061;-71
2022/06/04 13:03:45;;;;;;;;;;;;;;;;;;5013842;28;20017;-71
2022/06/04 13:06:29;;;;;;;5.28;2.22;;;;;;;;;;5028089;28;19967;-71
2022/06/04 13:09:24;;;;;;;4.43;1.90;;;;;;;;;;5023320;28;20057;-71
2022/06/04 13:12:03;;;;;;;4.50;2.00;;;;;;;;;;5032236;28;20065;-71
2022/06/04 13:14:40;;;;;;;4.63;2.22;;;;;;;;;;5020482;28;20438;-71
2022/06/04 13:17:19;;;;;;;5.93;2.30;;;;;;;;;;5014525;28;20036;-71
2022/06/04 13:20:14;;;;;;;5.43;2.28;;;;;;;;;;5013946;28;20022;-71
2022/06/04 13:22:48;;;;;;;6.38;2.15;;;;;;;;;;5016081;28;20541;-71
2022/06/04 13:25:16;;;;;;;5.80;1.80;;;;;;;;;;5029496;28;20025;-71
2022/06/04 13:27:42;;;;;;;5.60;2.20;;;;;;;;;;5033814;28;20028;-71
2022/06/04 13:30:15;;;;;;;5.63;3.17;;;;;;;;;;5033282;28;20100;-71
2022/06/04 13:32:40;;;;;;;4.85;2.10;;;;;;;;;;5019128;28;20363;-71
2022/06/04 13:35:06;;;;;;;4.88;2.33;;;;;;;;;;5013671;28;20261;-71
2022/06/04 13:37:33;;;;;;;5.38;2.38;;;;;;;;;;5014519;28;20107;-71
2022/06/04 13:40:01;;;;;;;6.35;3.10;;;;;;;;;;5012941;28;20029;-71
2022/06/04 13:42:26;;;;;;;4.40;1.98;;;;;;;;;;5030182;28;20025;-71
2022/06/04 13:45:11;;;;;;;6.05;2.60;;;;;;;;;;5022927;28;20028;-71
2022/06/04 13:47:48;;;;;;;4.88;2.60;;;;;;;;;;5023479;28;20029;-71
2022/06/04 13:50:15;;;;;;;5.65;2.45;;;;;;;;;;5024760;28;20030;-71
2022/06/04 13:52:41;;;;;;;5.47;2.60;;;;;;;;;;5021581;28;20024;-71
2022/06/04 13:55:07;;;;;;;5.93;2.60;;;;;;;;;;5026060;28;20475;-71
2022/06/04 13:57:38;;;;;;;5.20;2.50;;;;;;;;;;5024884;28;20052;-71
2022/06/04 14:00:20;;;;;;;4.25;2.15;;;;;;;;;;5018554;28;20025;-71
2022/06/04 14:02:46;;;;;;;6.07;2.80;;;;;;;;;;5034243;28;20604;-71
2022/06/04 14:05:51;;;;;;;6.13;2.20;;;;;;;;;;5029995;28;20053;-71
2022/06/04 14:08:16;;;;;;;4.60;2.00;;;;;;;;;;5031760;28;20401;-71
2022/06/04 14:10:55;;;;;;;4.10;2.13;;;;;;;;;;5025106;28;20037;-71
2022/06/04 14:13:26;;;;;;;4.93;2.58;;;;;;;;;;5030757;28;20110;-71
2022/06/04 14:15:51;;;;;;;4.40;2.35;;;;;;;;;;5015683;28;20017;-71
2022/06/04 14:18:35;;;;;;;4.47;2.25;;;;;;;;;;5022836;28;20029;-71
2022/06/04 14:21:20;;;;;;;5.78;2.20;;;;;;;;;;5026092;28;20505;-71
2022/06/04 14:24:03;;;;;;;5.60;2.60;;;;;;;;;;5029484;28;20048;-71
2022/06/04 14:26:43;;;;;;;4.40;2.33;;;;;;;;;;5033743;28;20022;-71
2022/06/04 14:29:11;;;;;;;5.30;2.00;;;;;;;;;;5029052;28;20104;-71
2022/06/04 14:31:55;;;;;;;9.48;2.50;;;;;;;;;;5021967;28;20116;-71
2022/06/04 14:34:20;;;;;;;5.90;2.25;;;;;;;;;;5012144;28;20045;-71
2022/06/04 14:36:47;;;;;;;6.40;2.67;;;;;;;;;;5014347;28;20406;-71
2022/06/04 14:39:12;;;;;;;4.50;2.20;;;;;;;;;;5030842;28;20025;-71
2022/06/04 14:41:37;;;;;;;10.45;6.93;;;;;;;;;;5020982;28;20487;-71
2022/06/04 14:44:03;;;;;;;7.57;4.60;;;;;;;;;;5011520;28;20018;-71
2022/06/04 14:46:28;;;;;;;26.55;18.13;;;;;;;;;;5013638;28;20316;-72
2022/06/04 14:49:16;;;;;;;4.72;2.72;;;;;;;;;;5025015;28;20017;-71
2022/06/04 14:51:48;;;;;;;8.70;5.43;;;;;;;;;;5026333;28;20034;-71
2022/06/04 14:54:13;;;;;;;5.25;2.20;;;;;;;;;;5023815;28;20049;-71
2022/06/04 14:56:39;;;;;;;6.45;2.40;;;;;;;;;;5017770;28;20064;-71
2022/06/04 14:59:07;;;;;;;8.57;2.20;;;;;;;;;;5014763;28;20032;-71
2022/06/04 15:01:51;;;;;;;5.97;2.20;;;;;;;;;;5025883;28;20113;-71
2022/06/04 15:04:17;;;;;;;5.93;2.10;;;;;;;;;;5024812;28;20124;-71
2022/06/04 15:06:45;;;;;;;4.43;2.10;;;;;;;;;;5016849;28;20034;-71
2022/06/04 15:09:21;;;;;;;6.18;3.17;;;;;;;;;;5028729;28;20017;-71
2022/06/04 15:12:02;;;;;;;6.43;2.20;;;;;;;;;;5030939;28;20112;-71